createdAt,value
2018-06-09T00:02:48.227Z,11.63
2018-06-09T00:07:52.940Z,14.20
2018-06-09T00:12:57.807Z,17.62
2018-06-09T00:18:03.421Z,13.28
2018-06-09T00:23:08.044Z,13.38
2018-06-09T00:28:12.914Z,14.73
2018-06-09T00:33:17.647Z,15.13
2018-06-09T00:38:23.316Z,14.43
2018-06-09T00:43:28.148Z,15.38
2018-06-09T00:48:34.194Z,15.98
2018-06-09T00:53:38.985Z,13.53
2018-06-09T00:58:44.410Z,14.78
2018-06-09T01:03:49.461Z,19.98
2018-06-09T01:08:54.315Z,18.17
2018-06-09T01:13:59.334Z,17.75
2018-06-09T01:19:04.199Z,15.28
2018-06-09T01:24:09.005Z,15.48
2018-06-09T01:29:13.770Z,15.60
2018-06-09T01:34:18.714Z,11.83
2018-06-09T01:39:23.521Z,12.25
2018-06-09T01:44:28.230Z,13.53
2018-06-09T01:49:33.334Z,10.48
2018-06-09T01:54:38.155Z,12.18
2018-06-09T01:59:42.981Z,12.47
2018-06-09T02:04:47.800Z,9.60
2018-06-09T02:09:52.558Z,10.90
2018-06-09T02:14:57.209Z,12.00
2018-06-09T02:20:01.948Z,10.28
2018-06-09T02:25:06.657Z,12.65
2018-06-09T02:30:11.376Z,12.18
2018-06-09T02:35:16.061Z,11.88
2018-06-09T02:40:20.770Z,10.80
2018-06-09T02:45:25.613Z,11.95
2018-06-09T02:50:30.475Z,12.65
2018-06-09T02:55:35.175Z,10.70
2018-06-09T03:00:40.034Z,12.88
2018-06-09T03:05:44.896Z,12.55
2018-06-09T03:10:49.903Z,13.72
2018-06-09T03:15:54.642Z,16.70
2018-06-09T03:20:59.365Z,14.65
2018-06-09T03:26:04.078Z,14.23
2018-06-09T03:31:09.052Z,13.10
2018-06-09T03:36:14.743Z,14.13
2018-06-09T03:41:19.539Z,12.07
2018-06-09T03:46:24.792Z,12.73
2018-06-09T03:51:29.761Z,14.23
2018-06-09T03:56:34.719Z,13.32
2018-06-09T04:01:39.432Z,14.83
2018-06-09T04:06:44.146Z,13.05
2018-06-09T04:11:48.896Z,13.72
2018-06-09T04:16:53.517Z,12.73
2018-06-09T04:21:58.114Z,15.18
2018-06-09T04:27:02.903Z,12.13
2018-06-09T04:32:07.735Z,14.65
2018-06-09T04:37:12.813Z,14.63
2018-06-09T04:42:17.638Z,14.53
2018-06-09T04:47:22.108Z,14.47
2018-06-09T04:52:26.784Z,13.38
2018-06-09T04:57:31.772Z,16.60
2018-06-09T05:02:37.846Z,14.45
2018-06-09T05:07:44.562Z,12.93
2018-06-09T05:12:49.432Z,17.00
2018-06-09T05:17:54.085Z,16.42
2018-06-09T05:22:58.890Z,20.27
2018-06-09T05:28:03.668Z,16.87
2018-06-09T05:33:08.450Z,18.12
2018-06-09T05:38:13.277Z,21.05
2018-06-09T05:43:18.277Z,20.60
2018-06-09T05:48:23.117Z,19.48
2018-06-09T05:53:27.725Z,13.13
2018-06-09T05:58:32.376Z,15.80
2018-06-09T06:03:36.647Z,11.90
2018-06-09T06:08:41.561Z,12.43
2018-06-09T06:13:46.267Z,14.38
2018-06-09T06:18:50.986Z,14.13
2018-06-09T06:23:55.757Z,11.12
2018-06-09T06:29:00.458Z,10.88
2018-06-09T06:34:06.018Z,12.10
2018-06-09T06:39:10.873Z,11.43
2018-06-09T06:44:15.610Z,11.35
2018-06-09T06:49:20.364Z,10.82
2018-06-09T06:54:25.308Z,13.43
2018-06-09T06:59:30.439Z,8.13
2018-06-09T07:04:35.224Z,8.43
2018-06-09T07:09:40.001Z,7.50
2018-06-09T07:14:45.052Z,10.15
2018-06-09T07:19:50.012Z,7.95
2018-06-09T07:24:55.088Z,6.62
2018-06-09T07:29:59.984Z,8.75
2018-06-09T07:35:04.721Z,8.13
2018-06-09T07:40:09.576Z,6.45
2018-06-09T07:45:14.506Z,7.42
2018-06-09T07:50:19.107Z,9.68
2018-06-09T07:55:24.277Z,8.68
2018-06-09T08:00:29.096Z,7.25
2018-06-09T08:05:33.940Z,8.15
2018-06-09T08:10:38.581Z,10.35
2018-06-09T08:15:43.215Z,6.10
2018-06-09T08:20:48.140Z,6.78
2018-06-09T08:25:54.024Z,6.60
2018-06-09T08:30:58.869Z,7.60
2018-06-09T08:36:03.868Z,5.62
2018-06-09T08:41:08.770Z,5.95
2018-06-09T08:46:13.882Z,5.80
2018-06-09T08:51:18.655Z,6.58
2018-06-09T08:56:24.051Z,6.62
2018-06-09T09:01:28.801Z,5.50
2018-06-09T09:06:33.431Z,6.80
2018-06-09T09:11:38.305Z,5.55
2018-06-09T09:16:43.133Z,5.62
2018-06-09T09:21:48.575Z,5.72
2018-06-09T09:26:53.431Z,6.28
2018-06-09T09:31:58.281Z,4.72
2018-06-09T09:37:04.104Z,7.53
2018-06-09T09:42:08.716Z,5.55
2018-06-09T09:47:13.485Z,7.33
2018-06-09T09:52:18.501Z,6.83
2018-06-09T09:57:23.256Z,7.60
2018-06-09T10:02:28.097Z,6.05
2018-06-09T10:07:32.947Z,6.22
2018-06-09T10:12:37.580Z,5.20
2018-06-09T10:17:42.531Z,5.80
2018-06-09T10:22:47.679Z,6.00
2018-06-09T10:27:52.744Z,4.72
2018-06-09T10:32:57.560Z,7.20
2018-06-09T10:38:02.290Z,6.72
2018-06-09T10:43:07.131Z,6.53
2018-06-09T10:48:11.974Z,5.30
2018-06-09T10:53:16.904Z,4.20
2018-06-09T10:58:21.861Z,4.05
2018-06-09T11:03:26.775Z,3.90
2018-06-09T11:08:31.736Z,4.78
2018-06-09T11:13:37.420Z,10.48
2018-06-09T11:18:47.265Z,4.03
2018-06-09T11:23:53.080Z,3.98
2018-06-09T11:28:58.135Z,3.90
2018-06-09T11:34:03.214Z,4.17
2018-06-09T11:39:09.130Z,3.92
2018-06-09T11:44:14.073Z,4.45
2018-06-09T11:49:18.940Z,5.47
2018-06-09T11:54:23.590Z,5.30
2018-06-09T11:59:28.512Z,3.30
2018-06-09T12:04:33.331Z,3.10
2018-06-09T12:09:38.188Z,4.78
2018-06-09T12:14:43.121Z,3.50
2018-06-09T12:19:47.861Z,2.90
2018-06-09T12:24:52.797Z,3.12
2018-06-09T12:29:57.502Z,2.85
2018-06-09T12:35:02.155Z,4.83
2018-06-09T12:40:06.962Z,5.22
2018-06-09T12:45:11.705Z,4.08
2018-06-09T12:50:16.450Z,2.92
2018-06-09T12:55:21.386Z,4.08
2018-06-09T13:00:26.054Z,2.30
2018-06-09T13:05:30.990Z,3.52
2018-06-09T13:10:35.807Z,2.90
2018-06-09T13:15:40.657Z,3.05
2018-06-09T13:20:45.533Z,4.67
2018-06-09T13:25:50.540Z,3.50
2018-06-09T13:30:55.494Z,3.42
2018-06-09T13:36:00.218Z,3.67
2018-06-09T13:41:05.051Z,3.00
2018-06-09T13:46:09.804Z,3.67
2018-06-09T13:51:14.514Z,2.87
2018-06-09T13:56:19.420Z,3.20
2018-06-09T14:01:24.463Z,2.70
2018-06-09T14:06:30.085Z,4.37
2018-06-09T14:11:34.692Z,3.85
2018-06-09T14:16:39.424Z,2.80
2018-06-09T14:21:44.206Z,2.85
2018-06-09T14:26:49.324Z,2.92
2018-06-09T14:31:54.291Z,2.77
2018-06-09T14:36:59.300Z,4.50
2018-06-09T14:42:04.537Z,2.37
2018-06-09T14:47:09.162Z,3.08
2018-06-09T14:52:13.874Z,3.00
2018-06-09T14:57:18.673Z,4.03
2018-06-09T15:02:22.955Z,4.90
2018-06-09T15:07:27.708Z,4.08
2018-06-09T15:12:32.345Z,2.62
2018-06-09T15:17:37.070Z,2.35
2018-06-09T15:22:41.749Z,3.12
2018-06-09T15:27:46.659Z,3.22
2018-06-09T15:32:52.532Z,2.40
2018-06-09T15:37:57.856Z,5.53
2018-06-09T15:43:02.611Z,2.70
2018-06-09T15:48:07.277Z,2.40
2018-06-09T15:53:21.774Z,3.62
2018-06-09T15:58:27.544Z,4.10
2018-06-09T16:03:48.089Z,3.10
2018-06-09T16:08:59.368Z,2.85
2018-06-09T16:14:18.034Z,3.30
2018-06-09T16:19:25.285Z,4.53
2018-06-09T16:24:30.072Z,3.37
2018-06-09T16:29:35.415Z,2.85
2018-06-09T16:34:40.359Z,2.22
2018-06-09T16:39:44.939Z,5.20
2018-06-09T16:45:02.069Z,3.65
2018-06-09T16:50:08.788Z,4.17
2018-06-09T16:55:13.346Z,7.28
2018-06-09T17:00:18.137Z,6.87
2018-06-09T17:05:22.864Z,5.40
2018-06-09T17:10:28.752Z,5.92
2018-06-09T17:15:34.105Z,5.37
2018-06-09T17:20:52.394Z,5.03
2018-06-09T17:31:23.499Z,4.70
2018-06-09T17:36:29.989Z,4.87
2018-06-09T17:41:52.502Z,6.53
2018-06-09T17:47:03.733Z,4.75
2018-06-09T17:52:20.581Z,5.85
2018-06-09T17:57:37.247Z,4.78
2018-06-09T18:02:55.964Z,5.28
2018-06-09T18:08:01.910Z,5.30
2018-06-09T18:13:08.085Z,6.20
2018-06-09T18:18:12.928Z,8.75
2018-06-09T18:23:18.248Z,4.55
2018-06-09T18:28:30.089Z,7.08
2018-06-09T18:33:37.045Z,5.42
2018-06-09T18:38:46.417Z,5.03
2018-06-09T18:43:54.820Z,4.85
2018-06-09T18:49:02.344Z,6.00
2018-06-09T18:54:08.501Z,7.78
2018-06-09T18:59:13.380Z,7.10
2018-06-09T19:04:18.317Z,6.47
2018-06-09T19:09:23.237Z,6.10
2018-06-09T19:14:28.158Z,7.00
2018-06-09T19:19:32.506Z,7.95
2018-06-09T19:24:37.540Z,8.50
2018-06-09T19:29:42.617Z,10.18
2018-06-09T19:34:47.752Z,6.67
2018-06-09T19:39:52.449Z,6.92
2018-06-09T19:44:57.513Z,8.15
2018-06-09T19:50:02.578Z,8.25
2018-06-09T19:55:08.435Z,8.83
2018-06-09T20:00:13.183Z,11.30
2018-06-09T20:05:18.089Z,9.80
2018-06-09T20:10:23.512Z,10.72
2018-06-09T20:15:28.379Z,8.33
2018-06-09T20:20:33.291Z,7.87
2018-06-09T20:25:38.170Z,8.33
2018-06-09T20:30:43.335Z,9.15
2018-06-09T20:35:48.369Z,8.45
2018-06-09T20:40:55.313Z,7.50
2018-06-09T20:46:00.521Z,8.45
2018-06-09T20:51:05.378Z,8.63
2018-06-09T20:56:10.653Z,7.60
2018-06-09T21:01:15.517Z,8.08
2018-06-09T21:06:20.448Z,9.18
2018-06-09T21:11:25.455Z,8.98
2018-06-09T21:16:30.423Z,8.30
2018-06-09T21:21:35.355Z,8.35
2018-06-09T21:26:45.399Z,10.88
2018-06-09T21:31:50.083Z,8.08
2018-06-09T21:36:56.721Z,8.65
2018-06-09T21:42:07.554Z,8.65
2018-06-09T21:47:12.456Z,7.87
2018-06-09T21:52:17.083Z,10.43
2018-06-09T21:57:21.869Z,10.35
2018-06-09T22:02:26.663Z,8.90
2018-06-09T22:07:31.372Z,9.35
2018-06-09T22:12:36.253Z,10.30
2018-06-09T22:17:41.068Z,11.83
2018-06-09T22:22:45.848Z,9.25
2018-06-09T22:27:50.763Z,7.78
2018-06-09T22:32:55.569Z,9.68
2018-06-09T22:38:00.340Z,8.45
2018-06-09T22:43:04.941Z,11.05
2018-06-09T22:48:09.905Z,9.50
2018-06-09T22:53:14.969Z,10.08
2018-06-09T22:58:19.574Z,8.55
2018-06-09T23:03:24.361Z,10.03
2018-06-09T23:08:29.160Z,11.30
2018-06-09T23:13:33.880Z,12.28
2018-06-09T23:18:38.158Z,21.30
2018-06-09T23:23:43.047Z,8.58
2018-06-09T23:28:47.991Z,10.50
2018-06-09T23:33:52.836Z,10.60
2018-06-09T23:38:57.470Z,9.30
2018-06-09T23:44:02.285Z,9.33
2018-06-09T23:49:07.035Z,9.80
2018-06-09T23:54:11.989Z,10.15
2018-06-09T23:59:16.695Z,10.48
